sensor_id;sensor_type;location;lat;lon;timestamp;P1;durP1;ratioP1;P2;durP2;ratioP2
19877;SDS011;10101;52.204;9.910;2024-01-15T00:00:57;14.73;;;8.20;;
19877;SDS011;10101;52.204;9.910;2024-01-15T00:03:23;12.53;;;6.47;;
19877;SDS011;10101;52.204;9.910;2024-01-15T00:05:50;14.47;;;6.43;;
19877;SDS011;10101;52.204;9.910;2024-01-15T00:08:17;11.97;;;7.23;;
19877;SDS011;10101;52.204;9.910;2024-01-15T00:10:44;13.03;;;7.37;;
19877;SDS011;10101;52.204;9.910;2024-01-15T00:13:10;10.50;;;5.77;;
19877;SDS011;10101;52.204;9.910;2024-01-15T00:15:37;8.60;;;5.43;;
19877;SDS011;10101;52.204;9.910;2024-01-15T00:18:06;9.03;;;5.30;;
19877;SDS011;10101;52.204;9.910;2024-01-15T00:20:32;10.37;;;6.07;;
19877;SDS011;10101;52.204;9.910;2024-01-15T00:22:59;7.57;;;4.80;;
19877;SDS011;10101;52.204;9.910;2024-01-15T00:25:26;9.87;;;5.73;;
19877;SDS011;10101;52.204;9.910;2024-01-15T00:27:53;11.47;;;6.13;;
19877;SDS011;10101;52.204;9.910;2024-01-15T00:30:19;8.50;;;5.63;;
19877;SDS011;10101;52.204;9.910;2024-01-15T00:32:46;7.63;;;3.87;;
19877;SDS011;10101;52.204;9.910;2024-01-15T00:35:14;7.77;;;4.47;;
19877;SDS011;10101;52.204;9.910;2024-01-15T00:37:41;6.83;;;4.60;;
19877;SDS011;10101;52.204;9.910;2024-01-15T00:40:08;8.40;;;4.93;;
19877;SDS011;10101;52.204;9.910;2024-01-15T00:42:35;8.10;;;4.50;;
19877;SDS011;10101;52.204;9.910;2024-01-15T00:45:02;6.13;;;4.10;;
19877;SDS011;10101;52.204;9.910;2024-01-15T00:47:30;6.60;;;3.60;;
19877;SDS011;10101;52.204;9.910;2024-01-15T00:49:57;6.37;;;4.07;;
19877;SDS011;10101;52.204;9.910;2024-01-15T00:52:25;6.87;;;4.37;;
19877;SDS011;10101;52.204;9.910;2024-01-15T00:54:51;9.57;;;4.23;;
19877;SDS011;10101;52.204;9.910;2024-01-15T00:57:18;7.60;;;3.83;;
19877;SDS011;10101;52.204;9.910;2024-01-15T00:59:45;6.80;;;4.20;;
19877;SDS011;10101;52.204;9.910;2024-01-15T01:02:13;5.43;;;3.67;;
19877;SDS011;10101;52.204;9.910;2024-01-15T01:04:40;6.80;;;4.60;;
19877;SDS011;10101;52.204;9.910;2024-01-15T01:07:06;6.03;;;4.13;;
19877;SDS011;10101;52.204;9.910;2024-01-15T01:09:34;8.83;;;4.80;;
19877;SDS011;10101;52.204;9.910;2024-01-15T01:12:01;6.47;;;3.87;;
19877;SDS011;10101;52.204;9.910;2024-01-15T01:14:28;5.77;;;3.97;;
19877;SDS011;10101;52.204;9.910;2024-01-15T01:16:55;7.13;;;3.47;;
19877;SDS011;10101;52.204;9.910;2024-01-15T01:19:21;7.23;;;4.37;;
19877;SDS011;10101;52.204;9.910;2024-01-15T01:21:50;6.87;;;3.00;;
19877;SDS011;10101;52.204;9.910;2024-01-15T01:24:17;4.60;;;2.83;;
19877;SDS011;10101;52.204;9.910;2024-01-15T01:26:45;9.30;;;3.30;;
19877;SDS011;10101;52.204;9.910;2024-01-15T01:29:12;5.30;;;2.40;;
19877;SDS011;10101;52.204;9.910;2024-01-15T01:31:42;4.23;;;2.60;;
19877;SDS011;10101;52.204;9.910;2024-01-15T01:34:09;7.37;;;2.70;;
19877;SDS011;10101;52.204;9.910;2024-01-15T01:36:36;7.10;;;2.73;;
19877;SDS011;10101;52.204;9.910;2024-01-15T01:39:02;4.57;;;2.37;;
19877;SDS011;10101;52.204;9.910;2024-01-15T01:41:29;4.30;;;2.03;;
19877;SDS011;10101;52.204;9.910;2024-01-15T01:43:57;5.87;;;2.73;;
19877;SDS011;10101;52.204;9.910;2024-01-15T01:46:24;7.03;;;2.77;;
19877;SDS011;10101;52.204;9.910;2024-01-15T01:48:52;12.87;;;2.93;;
19877;SDS011;10101;52.204;9.910;2024-01-15T01:51:19;10.67;;;2.97;;
19877;SDS011;10101;52.204;9.910;2024-01-15T01:53:48;5.80;;;2.07;;
19877;SDS011;10101;52.204;9.910;2024-01-15T01:56:15;3.90;;;2.60;;
19877;SDS011;10101;52.204;9.910;2024-01-15T01:58:43;7.50;;;2.60;;
19877;SDS011;10101;52.204;9.910;2024-01-15T02:01:12;4.53;;;2.33;;
19877;SDS011;10101;52.204;9.910;2024-01-15T02:03:39;3.80;;;2.30;;
19877;SDS011;10101;52.204;9.910;2024-01-15T02:06:06;5.57;;;2.30;;
19877;SDS011;10101;52.204;9.910;2024-01-15T02:08:33;3.57;;;2.27;;
19877;SDS011;10101;52.204;9.910;2024-01-15T02:11:01;9.87;;;2.77;;
19877;SDS011;10101;52.204;9.910;2024-01-15T02:13:27;6.33;;;3.17;;
19877;SDS011;10101;52.204;9.910;2024-01-15T02:15:54;2.93;;;1.73;;
19877;SDS011;10101;52.204;9.910;2024-01-15T02:18:22;4.93;;;2.17;;
19877;SDS011;10101;52.204;9.910;2024-01-15T02:20:49;11.40;;;2.60;;
19877;SDS011;10101;52.204;9.910;2024-01-15T02:23:17;6.47;;;2.43;;
19877;SDS011;10101;52.204;9.910;2024-01-15T02:25:44;4.60;;;1.90;;
19877;SDS011;10101;52.204;9.910;2024-01-15T02:28:13;6.33;;;2.20;;
19877;SDS011;10101;52.204;9.910;2024-01-15T02:30:41;5.70;;;1.73;;
19877;SDS011;10101;52.204;9.910;2024-01-15T02:33:09;7.13;;;2.57;;
19877;SDS011;10101;52.204;9.910;2024-01-15T02:35:36;5.50;;;2.00;;
19877;SDS011;10101;52.204;9.910;2024-01-15T02:38:03;8.70;;;2.10;;
19877;SDS011;10101;52.204;9.910;2024-01-15T02:40:32;4.77;;;1.90;;
19877;SDS011;10101;52.204;9.910;2024-01-15T02:42:59;4.43;;;1.70;;
19877;SDS011;10101;52.204;9.910;2024-01-15T02:45:26;4.77;;;2.80;;
19877;SDS011;10101;52.204;9.910;2024-01-15T02:47:53;6.37;;;1.90;;
19877;SDS011;10101;52.204;9.910;2024-01-15T02:50:20;2.93;;;1.53;;
19877;SDS011;10101;52.204;9.910;2024-01-15T02:52:53;6.77;;;2.63;;
19877;SDS011;10101;52.204;9.910;2024-01-15T02:55:19;4.60;;;1.83;;
19877;SDS011;10101;52.204;9.910;2024-01-15T02:57:48;7.43;;;1.77;;
19877;SDS011;10101;52.204;9.910;2024-01-15T03:00:15;4.67;;;1.90;;
19877;SDS011;10101;52.204;9.910;2024-01-15T03:02:44;7.70;;;2.30;;
19877;SDS011;10101;52.204;9.910;2024-01-15T03:05:10;3.80;;;1.30;;
19877;SDS011;10101;52.204;9.910;2024-01-15T03:07:37;10.03;;;2.10;;
19877;SDS011;10101;52.204;9.910;2024-01-15T03:10:04;6.73;;;1.67;;
19877;SDS011;10101;52.204;9.910;2024-01-15T03:12:32;6.13;;;2.10;;
19877;SDS011;10101;52.204;9.910;2024-01-15T03:15:00;6.03;;;1.70;;
19877;SDS011;10101;52.204;9.910;2024-01-15T03:17:27;3.80;;;1.10;;
19877;SDS011;10101;52.204;9.910;2024-01-15T03:19:54;6.33;;;1.90;;
19877;SDS011;10101;52.204;9.910;2024-01-15T03:22:21;4.63;;;1.30;;
19877;SDS011;10101;52.204;9.910;2024-01-15T03:24:48;3.27;;;1.87;;
19877;SDS011;10101;52.204;9.910;2024-01-15T03:27:14;7.63;;;1.93;;
19877;SDS011;10101;52.204;9.910;2024-01-15T03:29:41;7.93;;;1.70;;
19877;SDS011;10101;52.204;9.910;2024-01-15T03:32:09;3.57;;;1.43;;
19877;SDS011;10101;52.204;9.910;2024-01-15T03:34:36;5.53;;;2.00;;
19877;SDS011;10101;52.204;9.910;2024-01-15T03:37:03;3.27;;;1.47;;
19877;SDS011;10101;52.204;9.910;2024-01-15T03:39:29;10.40;;;1.90;;
19877;SDS011;10101;52.204;9.910;2024-01-15T03:41:56;6.30;;;1.93;;
19877;SDS011;10101;52.204;9.910;2024-01-15T03:44:23;5.63;;;1.70;;
19877;SDS011;10101;52.204;9.910;2024-01-15T03:46:50;7.57;;;1.27;;
19877;SDS011;10101;52.204;9.910;2024-01-15T03:49:18;6.80;;;1.70;;
19877;SDS011;10101;52.204;9.910;2024-01-15T03:51:44;12.00;;;2.77;;
19877;SDS011;10101;52.204;9.910;2024-01-15T03:54:11;1.90;;;1.00;;
19877;SDS011;10101;52.204;9.910;2024-01-15T03:56:38;4.60;;;1.40;;
19877;SDS011;10101;52.204;9.910;2024-01-15T03:59:05;4.50;;;1.70;;
19877;SDS011;10101;52.204;9.910;2024-01-15T04:01:34;6.20;;;1.40;;
19877;SDS011;10101;52.204;9.910;2024-01-15T04:04:01;3.37;;;1.47;;
19877;SDS011;10101;52.204;9.910;2024-01-15T04:06:29;4.20;;;1.83;;
19877;SDS011;10101;52.204;9.910;2024-01-15T04:08:56;5.10;;;1.50;;
19877;SDS011;10101;52.204;9.910;2024-01-15T04:11:22;6.53;;;1.57;;
19877;SDS011;10101;52.204;9.910;2024-01-15T04:13:49;2.43;;;1.00;;
19877;SDS011;10101;52.204;9.910;2024-01-15T04:16:16;5.33;;;1.60;;
19877;SDS011;10101;52.204;9.910;2024-01-15T04:18:43;4.97;;;1.50;;
19877;SDS011;10101;52.204;9.910;2024-01-15T04:21:09;6.83;;;1.73;;
19877;SDS011;10101;52.204;9.910;2024-01-15T04:23:38;3.93;;;1.90;;
19877;SDS011;10101;52.204;9.910;2024-01-15T04:26:05;4.60;;;1.73;;
19877;SDS011;10101;52.204;9.910;2024-01-15T04:28:32;5.97;;;1.47;;
19877;SDS011;10101;52.204;9.910;2024-01-15T04:30:58;3.53;;;1.40;;
19877;SDS011;10101;52.204;9.910;2024-01-15T04:33:25;8.20;;;1.90;;
19877;SDS011;10101;52.204;9.910;2024-01-15T04:35:52;3.40;;;1.70;;
19877;SDS011;10101;52.204;9.910;2024-01-15T04:38:18;3.43;;;1.40;;
19877;SDS011;10101;52.204;9.910;2024-01-15T04:40:46;8.17;;;1.87;;
19877;SDS011;10101;52.204;9.910;2024-01-15T04:43:13;3.43;;;1.10;;
19877;SDS011;10101;52.204;9.910;2024-01-15T04:45:40;2.70;;;1.27;;
19877;SDS011;10101;52.204;9.910;2024-01-15T04:48:07;6.73;;;1.50;;
19877;SDS011;10101;52.204;9.910;2024-01-15T04:50:33;9.73;;;1.70;;
19877;SDS011;10101;52.204;9.910;2024-01-15T04:53:00;2.43;;;1.47;;
19877;SDS011;10101;52.204;9.910;2024-01-15T04:55:27;5.60;;;1.83;;
19877;SDS011;10101;52.204;9.910;2024-01-15T04:57:55;6.93;;;2.00;;
19877;SDS011;10101;52.204;9.910;2024-01-15T05:00:21;5.47;;;1.43;;
19877;SDS011;10101;52.204;9.910;2024-01-15T05:02:48;3.53;;;1.40;;
19877;SDS011;10101;52.204;9.910;2024-01-15T05:05:15;9.97;;;1.90;;
19877;SDS011;10101;52.204;9.910;2024-01-15T05:07:41;4.83;;;1.43;;
19877;SDS011;10101;52.204;9.910;2024-01-15T05:10:08;6.50;;;1.50;;
19877;SDS011;10101;52.204;9.910;2024-01-15T05:12:35;8.43;;;2.20;;
19877;SDS011;10101;52.204;9.910;2024-01-15T05:15:04;7.43;;;1.40;;
19877;SDS011;10101;52.204;9.910;2024-01-15T05:17:31;2.90;;;1.10;;
19877;SDS011;10101;52.204;9.910;2024-01-15T05:19:58;10.47;;;2.10;;
19877;SDS011;10101;52.204;9.910;2024-01-15T05:22:25;4.77;;;1.37;;
19877;SDS011;10101;52.204;9.910;2024-01-15T05:24:51;8.17;;;1.67;;
19877;SDS011;10101;52.204;9.910;2024-01-15T05:27:18;4.03;;;1.50;;
19877;SDS011;10101;52.204;9.910;2024-01-15T05:29:45;2.33;;;1.30;;
19877;SDS011;10101;52.204;9.910;2024-01-15T05:32:13;8.77;;;1.90;;
19877;SDS011;10101;52.204;9.910;2024-01-15T05:34:39;2.73;;;1.43;;
19877;SDS011;10101;52.204;9.910;2024-01-15T05:37:06;6.23;;;1.87;;
19877;SDS011;10101;52.204;9.910;2024-01-15T05:39:33;6.40;;;1.57;;
19877;SDS011;10101;52.204;9.910;2024-01-15T05:42:00;5.33;;;1.57;;
19877;SDS011;10101;52.204;9.910;2024-01-15T05:44:26;4.43;;;1.53;;
19877;SDS011;10101;52.204;9.910;2024-01-15T05:46:53;4.53;;;1.50;;
19877;SDS011;10101;52.204;9.910;2024-01-15T05:49:21;8.37;;;2.47;;
19877;SDS011;10101;52.204;9.910;2024-01-15T05:51:48;2.07;;;1.67;;
19877;SDS011;10101;52.204;9.910;2024-01-15T05:54:17;4.40;;;1.57;;
19877;SDS011;10101;52.204;9.910;2024-01-15T05:56:45;4.03;;;1.53;;
19877;SDS011;10101;52.204;9.910;2024-01-15T05:59:11;8.23;;;1.97;;
19877;SDS011;10101;52.204;9.910;2024-01-15T06:01:38;9.43;;;2.40;;
19877;SDS011;10101;52.204;9.910;2024-01-15T06:04:05;4.50;;;2.00;;
19877;SDS011;10101;52.204;9.910;2024-01-15T06:06:33;5.57;;;1.37;;
19877;SDS011;10101;52.204;9.910;2024-01-15T06:09:00;7.83;;;2.20;;
19877;SDS011;10101;52.204;9.910;2024-01-15T06:11:30;7.83;;;1.90;;
19877;SDS011;10101;52.204;9.910;2024-01-15T06:13:57;5.97;;;2.13;;
19877;SDS011;10101;52.204;9.910;2024-01-15T06:16:25;5.33;;;2.07;;
19877;SDS011;10101;52.204;9.910;2024-01-15T06:18:52;7.80;;;2.20;;
19877;SDS011;10101;52.204;9.910;2024-01-15T06:21:19;5.67;;;1.37;;
19877;SDS011;10101;52.204;9.910;2024-01-15T06:23:47;5.00;;;1.70;;
19877;SDS011;10101;52.204;9.910;2024-01-15T06:26:14;3.70;;;1.57;;
19877;SDS011;10101;52.204;9.910;2024-01-15T06:28:41;6.00;;;1.60;;
19877;SDS011;10101;52.204;9.910;2024-01-15T06:31:07;1.40;;;1.00;;
19877;SDS011;10101;52.204;9.910;2024-01-15T06:33:36;5.60;;;1.80;;
19877;SDS011;10101;52.204;9.910;2024-01-15T06:36:03;4.03;;;1.60;;
19877;SDS011;10101;52.204;9.910;2024-01-15T06:38:30;6.30;;;1.60;;
19877;SDS011;10101;52.204;9.910;2024-01-15T06:40:58;3.10;;;1.47;;
19877;SDS011;10101;52.204;9.910;2024-01-15T06:43:26;2.97;;;1.50;;
19877;SDS011;10101;52.204;9.910;2024-01-15T06:45:52;8.23;;;2.20;;
19877;SDS011;10101;52.204;9.910;2024-01-15T06:48:19;3.93;;;2.17;;
19877;SDS011;10101;52.204;9.910;2024-01-15T06:50:46;5.17;;;1.60;;
19877;SDS011;10101;52.204;9.910;2024-01-15T06:53:13;2.77;;;1.60;;
19877;SDS011;10101;52.204;9.910;2024-01-15T06:55:39;6.93;;;1.40;;
19877;SDS011;10101;52.204;9.910;2024-01-15T06:58:08;4.83;;;1.90;;
19877;SDS011;10101;52.204;9.910;2024-01-15T07:00:34;3.20;;;1.23;;
19877;SDS011;10101;52.204;9.910;2024-01-15T07:03:01;4.77;;;2.10;;
19877;SDS011;10101;52.204;9.910;2024-01-15T07:05:28;5.20;;;2.17;;
19877;SDS011;10101;52.204;9.910;2024-01-15T07:07:55;4.50;;;1.83;;
19877;SDS011;10101;52.204;9.910;2024-01-15T07:10:22;5.60;;;2.20;;
19877;SDS011;10101;52.204;9.910;2024-01-15T07:12:49;4.03;;;1.93;;
19877;SDS011;10101;52.204;9.910;2024-01-15T07:15:17;3.77;;;1.47;;
19877;SDS011;10101;52.204;9.910;2024-01-15T07:17:44;5.73;;;1.90;;
19877;SDS011;10101;52.204;9.910;2024-01-15T07:20:11;3.13;;;1.53;;
19877;SDS011;10101;52.204;9.910;2024-01-15T07:22:38;4.27;;;1.73;;
19877;SDS011;10101;52.204;9.910;2024-01-15T07:25:05;4.00;;;1.60;;
19877;SDS011;10101;52.204;9.910;2024-01-15T07:27:32;4.00;;;1.60;;
19877;SDS011;10101;52.204;9.910;2024-01-15T07:29:59;2.07;;;1.20;;
19877;SDS011;10101;52.204;9.910;2024-01-15T07:32:27;6.50;;;1.50;;
19877;SDS011;10101;52.204;9.910;2024-01-15T07:34:54;3.13;;;1.63;;
19877;SDS011;10101;52.204;9.910;2024-01-15T07:37:20;4.13;;;1.63;;
19877;SDS011;10101;52.204;9.910;2024-01-15T07:39:48;3.43;;;1.73;;
19877;SDS011;10101;52.204;9.910;2024-01-15T07:42:15;3.77;;;1.83;;
19877;SDS011;10101;52.204;9.910;2024-01-15T07:44:41;1.53;;;1.37;;
19877;SDS011;10101;52.204;9.910;2024-01-15T07:47:08;3.57;;;1.80;;
19877;SDS011;10101;52.204;9.910;2024-01-15T07:49:36;5.33;;;1.43;;
19877;SDS011;10101;52.204;9.910;2024-01-15T07:52:03;2.17;;;1.40;;
19877;SDS011;10101;52.204;9.910;2024-01-15T07:54:30;2.60;;;1.70;;
19877;SDS011;10101;52.204;9.910;2024-01-15T07:56:58;4.90;;;1.80;;
19877;SDS011;10101;52.204;9.910;2024-01-15T07:59:27;1.73;;;1.43;;
19877;SDS011;10101;52.204;9.910;2024-01-15T08:01:54;3.50;;;1.60;;
19877;SDS011;10101;52.204;9.910;2024-01-15T08:04:21;6.30;;;2.20;;
19877;SDS011;10101;52.204;9.910;2024-01-15T08:06:49;1.70;;;1.50;;
19877;SDS011;10101;52.204;9.910;2024-01-15T08:09:16;5.53;;;2.23;;
19877;SDS011;10101;52.204;9.910;2024-01-15T08:11:43;4.10;;;1.40;;
19877;SDS011;10101;52.204;9.910;2024-01-15T08:14:10;2.50;;;1.50;;
19877;SDS011;10101;52.204;9.910;2024-01-15T08:16:37;3.47;;;1.83;;
19877;SDS011;10101;52.204;9.910;2024-01-15T08:19:04;1.70;;;1.23;;
19877;SDS011;10101;52.204;9.910;2024-01-15T08:21:31;3.10;;;1.47;;
19877;SDS011;10101;52.204;9.910;2024-01-15T08:23:59;2.07;;;1.23;;
19877;SDS011;10101;52.204;9.910;2024-01-15T08:26:27;3.90;;;1.57;;
19877;SDS011;10101;52.204;9.910;2024-01-15T08:28:54;1.60;;;0.90;;
19877;SDS011;10101;52.204;9.910;2024-01-15T08:31:21;3.17;;;0.90;;
19877;SDS011;10101;52.204;9.910;2024-01-15T08:33:48;2.07;;;1.13;;
19877;SDS011;10101;52.204;9.910;2024-01-15T08:36:14;8.37;;;1.83;;
19877;SDS011;10101;52.204;9.910;2024-01-15T08:38:41;2.90;;;1.53;;
19877;SDS011;10101;52.204;9.910;2024-01-15T08:41:09;4.63;;;1.73;;
19877;SDS011;10101;52.204;9.910;2024-01-15T08:43:36;1.57;;;1.20;;
19877;SDS011;10101;52.204;9.910;2024-01-15T08:46:03;4.30;;;1.20;;
19877;SDS011;10101;52.204;9.910;2024-01-15T08:48:30;4.50;;;1.40;;
19877;SDS011;10101;52.204;9.910;2024-01-15T08:50:56;4.37;;;1.50;;
19877;SDS011;10101;52.204;9.910;2024-01-15T08:53:23;6.60;;;1.37;;
19877;SDS011;10101;52.204;9.910;2024-01-15T08:55:50;2.73;;;1.50;;
19877;SDS011;10101;52.204;9.910;2024-01-15T08:58:18;5.17;;;1.40;;
19877;SDS011;10101;52.204;9.910;2024-01-15T09:00:45;2.80;;;1.40;;
19877;SDS011;10101;52.204;9.910;2024-01-15T09:03:12;4.00;;;1.60;;
19877;SDS011;10101;52.204;9.910;2024-01-15T09:05:39;3.63;;;1.10;;
19877;SDS011;10101;52.204;9.910;2024-01-15T09:08:06;3.33;;;1.17;;
19877;SDS011;10101;52.204;9.910;2024-01-15T09:10:33;3.23;;;1.60;;
19877;SDS011;10101;52.204;9.910;2024-01-15T09:12:59;3.17;;;1.30;;
19877;SDS011;10101;52.204;9.910;2024-01-15T09:15:28;2.57;;;1.57;;
19877;SDS011;10101;52.204;9.910;2024-01-15T09:17:54;3.00;;;1.43;;
19877;SDS011;10101;52.204;9.910;2024-01-15T09:20:22;3.60;;;1.60;;
19877;SDS011;10101;52.204;9.910;2024-01-15T09:22:50;3.77;;;0.97;;
19877;SDS011;10101;52.204;9.910;2024-01-15T09:25:17;3.93;;;1.63;;
19877;SDS011;10101;52.204;9.910;2024-01-15T09:27:44;5.23;;;1.10;;
19877;SDS011;10101;52.204;9.910;2024-01-15T09:30:11;2.37;;;1.07;;
19877;SDS011;10101;52.204;9.910;2024-01-15T09:32:40;3.57;;;1.20;;
19877;SDS011;10101;52.204;9.910;2024-01-15T09:35:07;2.57;;;1.37;;
19877;SDS011;10101;52.204;9.910;2024-01-15T09:37:34;4.80;;;1.50;;
19877;SDS011;10101;52.204;9.910;2024-01-15T09:40:01;4.53;;;1.97;;
19877;SDS011;10101;52.204;9.910;2024-01-15T09:42:28;1.77;;;1.10;;
19877;SDS011;10101;52.204;9.910;2024-01-15T09:44:56;6.33;;;1.47;;
19877;SDS011;10101;52.204;9.910;2024-01-15T09:47:23;3.47;;;1.43;;
19877;SDS011;10101;52.204;9.910;2024-01-15T09:49:52;2.23;;;1.23;;
19877;SDS011;10101;52.204;9.910;2024-01-15T09:52:19;4.00;;;1.80;;
19877;SDS011;10101;52.204;9.910;2024-01-15T09:54:46;3.17;;;1.40;;
19877;SDS011;10101;52.204;9.910;2024-01-15T09:57:14;6.20;;;1.47;;
19877;SDS011;10101;52.204;9.910;2024-01-15T09:59:41;5.50;;;1.83;;
19877;SDS011;10101;52.204;9.910;2024-01-15T10:02:11;3.13;;;1.10;;
19877;SDS011;10101;52.204;9.910;2024-01-15T10:04:42;2.57;;;1.10;;
19877;SDS011;10101;52.204;9.910;2024-01-15T10:07:10;3.33;;;1.10;;
19877;SDS011;10101;52.204;9.910;2024-01-15T10:09:42;8.57;;;1.90;;
19877;SDS011;10101;52.204;9.910;2024-01-15T10:12:09;2.90;;;1.53;;
19877;SDS011;10101;52.204;9.910;2024-01-15T10:14:36;3.17;;;1.00;;
19877;SDS011;10101;52.204;9.910;2024-01-15T10:17:11;2.13;;;1.00;;
19877;SDS011;10101;52.204;9.910;2024-01-15T10:19:39;4.50;;;1.13;;
19877;SDS011;10101;52.204;9.910;2024-01-15T10:22:07;2.27;;;0.90;;
19877;SDS011;10101;52.204;9.910;2024-01-15T10:24:36;4.90;;;1.30;;
19877;SDS011;10101;52.204;9.910;2024-01-15T10:27:04;4.03;;;1.30;;
19877;SDS011;10101;52.204;9.910;2024-01-15T10:29:32;2.30;;;1.13;;
19877;SDS011;10101;52.204;9.910;2024-01-15T10:31:59;5.73;;;1.80;;
19877;SDS011;10101;52.204;9.910;2024-01-15T10:34:26;1.40;;;1.03;;
19877;SDS011;10101;52.204;9.910;2024-01-15T10:36:52;3.20;;;1.47;;
19877;SDS011;10101;52.204;9.910;2024-01-15T10:39:21;5.97;;;1.57;;
19877;SDS011;10101;52.204;9.910;2024-01-15T10:41:49;1.27;;;0.90;;
19877;SDS011;10101;52.204;9.910;2024-01-15T10:44:16;6.47;;;1.00;;
19877;SDS011;10101;52.204;9.910;2024-01-15T10:46:43;5.30;;;1.23;;
19877;SDS011;10101;52.204;9.910;2024-01-15T10:49:12;4.67;;;1.30;;
19877;SDS011;10101;52.204;9.910;2024-01-15T10:51:39;1.67;;;1.00;;
19877;SDS011;10101;52.204;9.910;2024-01-15T10:54:07;1.63;;;0.90;;
19877;SDS011;10101;52.204;9.910;2024-01-15T10:56:36;1.27;;;0.90;;
19877;SDS011;10101;52.204;9.910;2024-01-15T10:59:04;2.83;;;1.07;;
19877;SDS011;10101;52.204;9.910;2024-01-15T11:01:32;6.67;;;1.37;;
19877;SDS011;10101;52.204;9.910;2024-01-15T11:03:59;4.17;;;1.07;;
19877;SDS011;10101;52.204;9.910;2024-01-15T11:06:27;4.53;;;1.33;;
19877;SDS011;10101;52.204;9.910;2024-01-15T11:09:06;3.60;;;1.30;;
19877;SDS011;10101;52.204;9.910;2024-01-15T11:11:34;1.53;;;1.03;;
19877;SDS011;10101;52.204;9.910;2024-01-15T11:14:01;4.00;;;1.00;;
19877;SDS011;10101;52.204;9.910;2024-01-15T11:19:24;3.37;;;1.10;;
19877;SDS011;10101;52.204;9.910;2024-01-15T11:21:51;2.57;;;1.00;;
19877;SDS011;10101;52.204;9.910;2024-01-15T11:24:33;3.97;;;1.20;;
19877;SDS011;10101;52.204;9.910;2024-01-15T11:27:02;2.67;;;1.20;;
19877;SDS011;10101;52.204;9.910;2024-01-15T11:29:29;3.10;;;1.33;;
19877;SDS011;10101;52.204;9.910;2024-01-15T11:31:59;2.73;;;1.00;;
19877;SDS011;10101;52.204;9.910;2024-01-15T11:37:24;1.87;;;1.10;;
19877;SDS011;10101;52.204;9.910;2024-01-15T11:39:52;3.70;;;1.40;;
19877;SDS011;10101;52.204;9.910;2024-01-15T11:42:20;1.13;;;1.03;;
19877;SDS011;10101;52.204;9.910;2024-01-15T11:44:47;4.43;;;1.20;;
19877;SDS011;10101;52.204;9.910;2024-01-15T11:47:17;3.70;;;1.13;;
19877;SDS011;10101;52.204;9.910;2024-01-15T11:50:00;3.20;;;1.20;;
19877;SDS011;10101;52.204;9.910;2024-01-15T11:52:32;4.43;;;1.00;;
19877;SDS011;10101;52.204;9.910;2024-01-15T11:57:45;3.10;;;1.10;;
19877;SDS011;10101;52.204;9.910;2024-01-15T12:00:13;4.30;;;1.13;;
19877;SDS011;10101;52.204;9.910;2024-01-15T12:02:42;3.73;;;1.47;;
19877;SDS011;10101;52.204;9.910;2024-01-15T12:05:11;6.63;;;1.67;;
19877;SDS011;10101;52.204;9.910;2024-01-15T12:07:38;4.37;;;1.10;;
19877;SDS011;10101;52.204;9.910;2024-01-15T12:10:09;5.20;;;1.30;;
19877;SDS011;10101;52.204;9.910;2024-01-15T12:12:44;1.40;;;1.10;;
19877;SDS011;10101;52.204;9.910;2024-01-15T12:15:19;4.53;;;1.27;;
19877;SDS011;10101;52.204;9.910;2024-01-15T12:17:48;3.40;;;1.13;;
19877;SDS011;10101;52.204;9.910;2024-01-15T12:20:15;5.53;;;1.30;;
19877;SDS011;10101;52.204;9.910;2024-01-15T12:22:41;8.60;;;1.47;;
19877;SDS011;10101;52.204;9.910;2024-01-15T12:25:08;2.57;;;1.10;;
19877;SDS011;10101;52.204;9.910;2024-01-15T12:27:35;3.47;;;1.00;;
19877;SDS011;10101;52.204;9.910;2024-01-15T12:30:03;6.97;;;1.30;;
19877;SDS011;10101;52.204;9.910;2024-01-15T12:32:30;4.27;;;1.20;;
19877;SDS011;10101;52.204;9.910;2024-01-15T12:34:58;3.50;;;1.20;;
19877;SDS011;10101;52.204;9.910;2024-01-15T12:37:26;5.50;;;1.30;;
19877;SDS011;10101;52.204;9.910;2024-01-15T12:39:53;2.93;;;1.40;;
19877;SDS011;10101;52.204;9.910;2024-01-15T12:42:20;3.33;;;1.00;;
19877;SDS011;10101;52.204;9.910;2024-01-15T12:44:47;3.80;;;1.43;;
19877;SDS011;10101;52.204;9.910;2024-01-15T12:47:14;3.60;;;1.03;;
19877;SDS011;10101;52.204;9.910;2024-01-15T12:49:46;2.90;;;1.10;;
19877;SDS011;10101;52.204;9.910;2024-01-15T12:52:14;3.97;;;1.30;;
19877;SDS011;10101;52.204;9.910;2024-01-15T12:54:41;6.20;;;1.30;;
19877;SDS011;10101;52.204;9.910;2024-01-15T12:57:07;3.03;;;0.80;;
19877;SDS011;10101;52.204;9.910;2024-01-15T12:59:34;11.67;;;1.57;;
19877;SDS011;10101;52.204;9.910;2024-01-15T13:02:01;3.60;;;1.27;;
19877;SDS011;10101;52.204;9.910;2024-01-15T13:04:28;4.97;;;1.30;;
19877;SDS011;10101;52.204;9.910;2024-01-15T13:06:54;7.03;;;1.20;;
19877;SDS011;10101;52.204;9.910;2024-01-15T13:09:25;4.33;;;1.20;;
19877;SDS011;10101;52.204;9.910;2024-01-15T13:11:52;2.93;;;1.00;;
19877;SDS011;10101;52.204;9.910;2024-01-15T13:14:18;6.77;;;1.20;;
19877;SDS011;10101;52.204;9.910;2024-01-15T13:16:44;3.83;;;1.00;;
19877;SDS011;10101;52.204;9.910;2024-01-15T13:19:11;2.23;;;1.07;;
19877;SDS011;10101;52.204;9.910;2024-01-15T13:21:38;5.00;;;1.77;;
19877;SDS011;10101;52.204;9.910;2024-01-15T13:24:06;4.70;;;0.90;;
19877;SDS011;10101;52.204;9.910;2024-01-15T13:26:34;4.13;;;1.10;;
19877;SDS011;10101;52.204;9.910;2024-01-15T13:29:01;3.47;;;1.17;;
19877;SDS011;10101;52.204;9.910;2024-01-15T13:31:28;2.00;;;0.80;;
19877;SDS011;10101;52.204;9.910;2024-01-15T13:33:55;4.43;;;0.90;;
19877;SDS011;10101;52.204;9.910;2024-01-15T13:36:23;3.20;;;1.23;;
19877;SDS011;10101;52.204;9.910;2024-01-15T13:38:48;2.33;;;0.90;;
19877;SDS011;10101;52.204;9.910;2024-01-15T13:41:16;3.63;;;1.10;;
19877;SDS011;10101;52.204;9.910;2024-01-15T13:43:45;3.50;;;0.97;;
19877;SDS011;10101;52.204;9.910;2024-01-15T13:46:12;3.87;;;1.03;;
19877;SDS011;10101;52.204;9.910;2024-01-15T13:48:39;5.70;;;1.10;;
19877;SDS011;10101;52.204;9.910;2024-01-15T13:51:05;4.93;;;1.10;;
19877;SDS011;10101;52.204;9.910;2024-01-15T13:53:32;4.03;;;1.20;;
19877;SDS011;10101;52.204;9.910;2024-01-15T13:55:59;2.20;;;1.20;;
19877;SDS011;10101;52.204;9.910;2024-01-15T13:58:25;2.10;;;0.67;;
19877;SDS011;10101;52.204;9.910;2024-01-15T14:00:54;7.80;;;1.23;;
19877;SDS011;10101;52.204;9.910;2024-01-15T14:03:20;4.13;;;0.93;;
19877;SDS011;10101;52.204;9.910;2024-01-15T14:05:47;4.23;;;1.43;;
19877;SDS011;10101;52.204;9.910;2024-01-15T14:08:14;1.43;;;1.00;;
19877;SDS011;10101;52.204;9.910;2024-01-15T14:10:41;4.40;;;0.87;;
19877;SDS011;10101;52.204;9.910;2024-01-15T14:13:07;3.73;;;1.00;;
19877;SDS011;10101;52.204;9.910;2024-01-15T14:15:34;4.60;;;1.30;;
19877;SDS011;10101;52.204;9.910;2024-01-15T14:18:03;2.70;;;1.30;;
19877;SDS011;10101;52.204;9.910;2024-01-15T14:20:30;3.03;;;1.20;;
19877;SDS011;10101;52.204;9.910;2024-01-15T14:22:57;4.03;;;1.13;;
19877;SDS011;10101;52.204;9.910;2024-01-15T14:25:24;3.53;;;1.57;;
19877;SDS011;10101;52.204;9.910;2024-01-15T14:27:51;4.13;;;1.10;;
19877;SDS011;10101;52.204;9.910;2024-01-15T14:30:18;3.37;;;1.20;;
19877;SDS011;10101;52.204;9.910;2024-01-15T14:32:44;2.33;;;0.93;;
19877;SDS011;10101;52.204;9.910;2024-01-15T14:35:12;2.97;;;1.27;;
19877;SDS011;10101;52.204;9.910;2024-01-15T14:37:40;4.47;;;1.20;;
19877;SDS011;10101;52.204;9.910;2024-01-15T14:40:07;2.37;;;0.90;;
19877;SDS011;10101;52.204;9.910;2024-01-15T14:42:35;4.97;;;1.10;;
19877;SDS011;10101;52.204;9.910;2024-01-15T14:45:02;3.37;;;1.00;;
19877;SDS011;10101;52.204;9.910;2024-01-15T14:47:33;2.57;;;1.00;;
19877;SDS011;10101;52.204;9.910;2024-01-15T14:50:00;1.07;;;0.97;;
19877;SDS011;10101;52.204;9.910;2024-01-15T14:52:29;5.37;;;1.43;;
19877;SDS011;10101;52.204;9.910;2024-01-15T14:54:55;5.23;;;1.67;;
19877;SDS011;10101;52.204;9.910;2024-01-15T14:57:22;2.40;;;1.23;;